createdAt,value
2019-01-11T17:54:46.402Z,0.40
2019-01-11T18:00:09.890Z,0.40
2019-01-11T18:05:30.308Z,0.50
2019-01-11T18:11:04.045Z,0.50
2019-01-11T18:16:24.949Z,0.50
2019-01-11T18:21:45.559Z,0.40
2019-01-11T18:27:05.965Z,0.40
2019-01-11T18:32:26.803Z,0.50
2019-01-11T18:37:47.657Z,0.50
2019-01-11T18:43:08.350Z,0.50
2019-01-11T18:48:33.049Z,0.50
2019-01-11T18:53:53.521Z,0.50
2019-01-11T18:59:14.050Z,0.50
2019-01-11T19:04:34.409Z,0.50
2019-01-11T19:09:55.451Z,0.60
2019-01-11T19:15:21.609Z,0.60
2019-01-11T19:20:41.785Z,0.70
2019-01-11T19:26:02.238Z,0.60
2019-01-11T19:31:23.237Z,0.60
2019-01-11T19:36:43.977Z,0.60
2019-01-11T19:42:04.473Z,0.70
2019-01-11T19:47:25.980Z,0.70
2019-01-11T19:52:48.070Z,0.80
2019-01-11T19:58:08.914Z,0.80
2019-01-11T20:03:29.979Z,0.80
2019-01-11T20:08:50.594Z,0.90
2019-01-11T20:14:11.224Z,0.90
2019-01-11T20:19:32.053Z,0.90
2019-01-11T20:24:55.441Z,0.90
2019-01-11T20:30:24.005Z,0.90
2019-01-11T20:35:44.857Z,0.90
2019-01-11T20:41:05.906Z,1.10
2019-01-11T20:46:26.646Z,1.20
2019-01-11T20:51:47.286Z,1.30
2019-01-11T20:57:07.831Z,1.20
2019-01-11T21:02:28.975Z,1.20
2019-01-11T21:07:49.396Z,1.50
2019-01-11T21:13:09.865Z,1.20
2019-01-11T21:18:30.738Z,1.30
2019-01-11T21:23:51.511Z,1.30
2019-01-11T21:29:11.826Z,1.30
2019-01-11T21:34:32.198Z,1.40
